Goodview, Minnesota
Current Conditions -  °F | °C
As of 2:54 AM on Sunday 23 Nov 2014 (Local Time) from KONA Reporting Station
Haze Haze  
Wind Chill: 54°   Ceiling: 1400
Heat Index: 54°   Visibility: 3mi
Dew Point: 50°   Wind: 8mph
Humidity: 88%   Direction: 200°SSW
Pressure: 29.56"   Gusts: NA
Location:  43.9823°N, 91.6349°W
Report Text: KONA 230854Z AUTO 20007KT 3SM BR OVC014 12/10 A2956 RMK AO2
Loading
Personal Weather Stations






























Interactive Weather Map New forecast layout! Learn more

10-Day Weather Forecast

Advertisements
Track Severe Weather on mobile